createdAt,value
2023-03-31T00:02:13.548Z,13.38
2023-03-31T00:04:46.576Z,12.38
2023-03-31T00:07:16.716Z,13.10
2023-03-31T00:09:46.670Z,10.68
2023-03-31T00:12:16.800Z,8.43
2023-03-31T00:14:46.793Z,12.15
2023-03-31T00:17:17.420Z,11.02
2023-03-31T00:19:49.970Z,8.88
2023-03-31T00:22:22.192Z,9.88
2023-03-31T00:24:51.872Z,10.65
2023-03-31T00:27:21.090Z,11.38
2023-03-31T00:29:50.873Z,10.65
2023-03-31T00:32:21.537Z,6.78
2023-03-31T00:34:50.999Z,10.00
2023-03-31T00:37:21.175Z,9.93
2023-03-31T00:39:51.992Z,8.82
2023-03-31T00:42:21.330Z,9.02
2023-03-31T00:45:23.484Z,6.88
2023-03-31T00:47:59.782Z,8.65
2023-03-31T00:50:32.559Z,9.73
2023-03-31T00:53:07.227Z,9.18
2023-03-31T00:55:40.515Z,7.68
2023-03-31T00:58:14.505Z,9.88
2023-03-31T01:00:44.419Z,12.35
2023-03-31T01:03:16.148Z,10.23
2023-03-31T01:05:50.227Z,13.00
2023-03-31T01:08:24.502Z,9.05
2023-03-31T01:10:56.909Z,12.52
2023-03-31T01:13:27.864Z,10.82
2023-03-31T01:15:57.574Z,10.48
2023-03-31T01:18:35.052Z,8.65
2023-03-31T01:24:38.093Z,6.82
2023-03-31T01:27:25.585Z,9.10
2023-03-31T01:30:18.402Z,8.55
2023-03-31T01:33:26.566Z,8.50
2023-03-31T01:36:21.312Z,7.35
2023-03-31T01:39:20.836Z,9.98
2023-03-31T01:42:00.454Z,6.57
2023-03-31T01:44:40.725Z,8.30
2023-03-31T01:47:18.372Z,8.52
2023-03-31T01:49:56.395Z,10.18
2023-03-31T01:52:30.080Z,8.05
2023-03-31T01:55:10.242Z,9.57
2023-03-31T01:57:45.777Z,12.25
2023-03-31T02:00:18.281Z,9.50
2023-03-31T02:02:52.094Z,10.02
2023-03-31T02:05:26.067Z,9.27
2023-03-31T02:07:59.320Z,8.40
2023-03-31T02:10:32.796Z,6.57
2023-03-31T02:13:05.001Z,5.95
2023-03-31T02:15:38.349Z,6.32
2023-03-31T02:18:12.596Z,9.98
2023-03-31T02:20:46.402Z,6.53
2023-03-31T02:23:20.944Z,5.82
2023-03-31T02:25:54.388Z,9.60
2023-03-31T02:28:28.652Z,8.23
2023-03-31T02:35:56.289Z,13.75
2023-03-31T02:38:25.932Z,7.28
2023-03-31T02:40:55.572Z,8.93
2023-03-31T02:43:26.220Z,6.90
2023-03-31T02:45:56.778Z,7.80
2023-03-31T02:48:28.577Z,8.82
2023-03-31T02:51:20.964Z,10.88
2023-03-31T02:54:04.239Z,11.02
2023-03-31T02:57:00.393Z,9.70
2023-03-31T02:59:43.144Z,7.88
2023-03-31T03:02:20.518Z,5.68
2023-03-31T03:05:21.456Z,9.30
2023-03-31T03:08:22.359Z,7.40
2023-03-31T03:11:02.038Z,7.82
2023-03-31T03:13:37.768Z,8.73
2023-03-31T03:16:14.050Z,11.32
2023-03-31T03:18:44.020Z,11.82
2023-03-31T03:21:13.199Z,6.43
2023-03-31T03:23:43.299Z,7.43
2023-03-31T03:26:12.570Z,7.45
2023-03-31T03:28:41.997Z,8.85
2023-03-31T03:31:13.571Z,11.18
2023-03-31T03:33:43.397Z,11.52
2023-03-31T03:36:12.844Z,11.43
2023-03-31T03:38:42.270Z,5.85
2023-03-31T03:41:11.525Z,6.55
2023-03-31T03:43:41.062Z,11.07
2023-03-31T03:46:11.684Z,6.18
2023-03-31T03:48:41.390Z,11.57
2023-03-31T03:51:10.724Z,5.35
2023-03-31T03:53:40.370Z,12.20
2023-03-31T03:56:09.665Z,10.30
2023-03-31T03:58:39.180Z,16.08
2023-03-31T04:01:08.755Z,8.82
2023-03-31T04:03:39.613Z,11.35
2023-03-31T04:06:09.303Z,9.48
2023-03-31T04:08:38.934Z,8.68
2023-03-31T04:11:17.341Z,12.10
2023-03-31T04:13:48.805Z,11.35
2023-03-31T04:16:18.170Z,11.30
2023-03-31T04:18:49.200Z,11.82
2023-03-31T04:21:23.248Z,9.10
2023-03-31T04:23:58.911Z,12.90
2023-03-31T04:26:43.503Z,14.02
2023-03-31T04:29:14.651Z,12.60
2023-03-31T04:31:44.695Z,11.02
2023-03-31T04:34:16.727Z,16.70
2023-03-31T04:36:48.287Z,11.77
2023-03-31T04:39:24.478Z,15.50
2023-03-31T04:44:23.195Z,16.80
2023-03-31T04:46:52.419Z,14.05
2023-03-31T04:49:23.328Z,12.55
2023-03-31T04:51:52.560Z,11.30
2023-03-31T04:54:22.540Z,11.20
2023-03-31T04:56:51.966Z,12.73
2023-03-31T04:59:21.513Z,11.18
2023-03-31T05:01:50.749Z,12.57
2023-03-31T05:04:20.321Z,12.02
2023-03-31T05:06:51.255Z,13.13
2023-03-31T05:09:20.912Z,12.52
2023-03-31T05:11:50.164Z,10.63
2023-03-31T05:14:19.637Z,12.75
2023-03-31T05:16:48.865Z,12.15
2023-03-31T05:19:19.138Z,12.75
2023-03-31T05:21:50.994Z,13.95
2023-03-31T05:24:21.076Z,13.20
2023-03-31T05:26:53.040Z,14.20
2023-03-31T05:29:23.554Z,11.57
2023-03-31T05:31:53.928Z,10.93
2023-03-31T05:34:23.539Z,15.02
2023-03-31T05:36:54.687Z,13.25
2023-03-31T05:39:24.338Z,9.93
2023-03-31T05:41:53.585Z,15.15
2023-03-31T05:44:23.236Z,12.40
2023-03-31T05:46:52.473Z,11.95
2023-03-31T05:49:22.087Z,15.68
2023-03-31T05:51:51.846Z,15.27
2023-03-31T05:54:22.824Z,12.10
2023-03-31T05:56:52.034Z,12.95
2023-03-31T05:59:21.559Z,18.02
2023-03-31T06:01:50.867Z,14.80
2023-03-31T06:04:20.529Z,12.63
2023-03-31T06:06:50.643Z,13.95
2023-03-31T06:09:21.692Z,14.20
2023-03-31T06:11:50.943Z,11.55
2023-03-31T06:14:20.854Z,11.30
2023-03-31T06:16:50.167Z,12.63
2023-03-31T06:19:19.993Z,9.88
2023-03-31T06:21:49.251Z,12.25
2023-03-31T06:24:18.883Z,14.85
2023-03-31T06:26:50.745Z,14.45
2023-03-31T06:29:21.447Z,14.13
2023-03-31T06:31:50.731Z,11.52
2023-03-31T06:34:21.475Z,11.45
2023-03-31T06:36:51.155Z,13.98
2023-03-31T06:39:20.918Z,11.23
2023-03-31T06:41:51.489Z,11.35
2023-03-31T06:44:29.127Z,14.88
2023-03-31T06:46:58.430Z,14.25
2023-03-31T06:49:28.201Z,13.65
2023-03-31T06:51:57.594Z,11.68
2023-03-31T06:54:27.218Z,12.20
2023-03-31T06:56:57.896Z,18.15
2023-03-31T06:59:27.593Z,12.57
2023-03-31T07:01:58.045Z,12.85
2023-03-31T07:04:27.940Z,15.95
2023-03-31T07:06:59.254Z,12.48
2023-03-31T07:09:29.013Z,12.15
2023-03-31T07:11:59.824Z,14.35
2023-03-31T07:14:29.677Z,15.85
2023-03-31T07:16:59.057Z,12.38
2023-03-31T07:19:28.866Z,14.43
2023-03-31T07:21:58.294Z,10.48
2023-03-31T07:24:27.929Z,11.57
2023-03-31T07:26:58.694Z,12.55
2023-03-31T07:29:28.807Z,10.40
2023-03-31T07:31:58.157Z,10.77
2023-03-31T07:34:27.924Z,9.85
2023-03-31T07:36:57.805Z,11.55
2023-03-31T07:39:27.542Z,10.20
2023-03-31T07:41:58.499Z,8.43
2023-03-31T07:44:28.113Z,10.68
2023-03-31T07:46:58.677Z,11.93
2023-03-31T07:49:28.464Z,7.90
2023-03-31T07:51:58.057Z,16.08
2023-03-31T07:54:28.020Z,7.57
2023-03-31T07:57:01.912Z,16.85
2023-03-31T07:59:32.183Z,8.20
2023-03-31T08:02:01.873Z,7.70
2023-03-31T08:04:31.689Z,7.22
2023-03-31T08:07:00.995Z,11.82
2023-03-31T08:09:30.855Z,11.00
2023-03-31T08:12:01.599Z,10.75
2023-03-31T08:14:40.586Z,11.82
2023-03-31T08:17:11.339Z,7.63
2023-03-31T08:19:41.230Z,9.35
2023-03-31T08:22:10.582Z,8.98
2023-03-31T08:24:40.168Z,8.45
2023-03-31T08:27:12.279Z,12.20
2023-03-31T08:29:42.207Z,6.82
2023-03-31T08:32:11.790Z,6.45
2023-03-31T08:34:42.765Z,10.38
2023-03-31T08:37:11.989Z,4.50
2023-03-31T08:39:41.698Z,7.00
2023-03-31T08:42:17.353Z,5.88
2023-03-31T08:44:54.602Z,6.93
2023-03-31T08:47:28.382Z,8.00
2023-03-31T08:50:01.925Z,6.57
2023-03-31T08:52:35.711Z,8.40
2023-03-31T08:55:09.929Z,8.75
2023-03-31T08:57:51.849Z,8.02
2023-03-31T09:00:22.319Z,7.10
2023-03-31T09:02:57.501Z,9.70
2023-03-31T09:06:00.193Z,8.93
2023-03-31T09:08:42.967Z,6.57
2023-03-31T09:11:22.846Z,10.60
2023-03-31T09:14:16.358Z,8.30
2023-03-31T09:16:54.064Z,7.75
2023-03-31T09:19:32.114Z,10.52
2023-03-31T09:22:02.793Z,6.80
2023-03-31T09:24:36.876Z,9.43
2023-03-31T09:27:09.775Z,7.68
2023-03-31T09:29:46.676Z,8.00
2023-03-31T09:32:18.901Z,7.35
2023-03-31T09:34:51.797Z,4.43
2023-03-31T09:37:21.926Z,4.90
2023-03-31T09:39:51.587Z,2.50
2023-03-31T09:42:21.613Z,4.88
2023-03-31T09:44:52.328Z,5.25
2023-03-31T09:47:30.479Z,6.00
2023-03-31T09:49:59.767Z,5.28
2023-03-31T09:52:32.814Z,3.03
2023-03-31T09:55:03.817Z,6.40
2023-03-31T09:57:36.326Z,5.97
2023-03-31T10:00:16.565Z,4.40
2023-03-31T10:02:50.559Z,5.18
2023-03-31T10:05:32.599Z,7.72
2023-03-31T10:08:25.219Z,6.38
2023-03-31T10:10:56.719Z,6.03
2023-03-31T10:13:29.505Z,3.83
2023-03-31T10:16:08.481Z,4.20
2023-03-31T10:18:39.933Z,6.15
2023-03-31T10:21:19.622Z,6.00
2023-03-31T10:23:50.989Z,4.88
2023-03-31T10:26:23.531Z,4.80
2023-03-31T10:28:55.469Z,5.80
2023-03-31T10:31:35.648Z,8.27
2023-03-31T10:34:09.755Z,9.45
2023-03-31T10:36:39.344Z,10.27
2023-03-31T10:39:10.385Z,4.68
2023-03-31T10:41:41.364Z,8.43
2023-03-31T10:44:33.002Z,4.53
2023-03-31T10:47:18.885Z,9.38
2023-03-31T10:49:53.099Z,5.82
2023-03-31T10:52:24.646Z,10.60
2023-03-31T10:54:58.107Z,9.25
2023-03-31T10:57:37.326Z,7.25
2023-03-31T11:00:21.476Z,3.47
2023-03-31T11:03:24.554Z,5.20
2023-03-31T11:05:56.615Z,4.75
2023-03-31T11:08:43.645Z,6.32
2023-03-31T11:11:28.932Z,7.28
2023-03-31T11:14:07.148Z,3.97
2023-03-31T11:16:46.059Z,9.40
2023-03-31T11:19:30.225Z,7.13
2023-03-31T11:22:06.532Z,5.38
2023-03-31T11:24:53.234Z,5.40
2023-03-31T11:27:37.970Z,4.18
2023-03-31T11:30:20.612Z,5.32
2023-03-31T11:32:59.977Z,5.28
2023-03-31T11:35:54.489Z,5.40
2023-03-31T11:38:50.870Z,5.05
2023-03-31T11:41:24.489Z,6.75
2023-03-31T11:43:56.720Z,4.63
2023-03-31T11:46:33.642Z,6.63
2023-03-31T11:49:06.986Z,3.47
2023-03-31T11:51:45.725Z,5.53
2023-03-31T11:54:21.690Z,3.97
2023-03-31T11:56:52.770Z,5.57
2023-03-31T11:59:27.835Z,4.50
2023-03-31T12:02:05.568Z,3.45
2023-03-31T12:04:38.595Z,6.75
2023-03-31T12:07:22.654Z,4.80
2023-03-31T12:10:06.059Z,4.57
2023-03-31T12:12:41.208Z,7.60
2023-03-31T12:15:18.358Z,7.47
2023-03-31T12:17:54.123Z,4.85
2023-03-31T12:20:31.103Z,3.58
2023-03-31T12:23:03.769Z,4.30
2023-03-31T12:25:45.860Z,4.93
2023-03-31T12:28:16.277Z,5.20
2023-03-31T12:30:46.903Z,6.15
2023-03-31T12:33:21.382Z,5.07
2023-03-31T12:36:08.882Z,3.47
2023-03-31T12:38:51.598Z,6.25
2023-03-31T12:41:30.005Z,5.38
2023-03-31T12:44:18.123Z,4.75
2023-03-31T12:47:12.468Z,7.03
2023-03-31T12:49:56.340Z,3.65
2023-03-31T12:52:38.034Z,5.85
2023-03-31T12:55:34.329Z,7.70
2023-03-31T12:58:38.835Z,5.78
2023-03-31T13:01:11.964Z,6.97
2023-03-31T13:03:48.496Z,4.53
2023-03-31T13:07:01.194Z,6.72
2023-03-31T13:09:48.802Z,6.15
2023-03-31T13:12:22.264Z,5.82
2023-03-31T13:14:54.714Z,8.40
2023-03-31T13:17:28.051Z,8.90
2023-03-31T13:20:16.058Z,6.80
2023-03-31T13:22:48.535Z,11.88
2023-03-31T13:25:44.631Z,6.18
2023-03-31T13:28:33.953Z,16.08
2023-03-31T13:31:05.131Z,22.08
2023-03-31T13:33:43.004Z,19.67
2023-03-31T13:36:36.474Z,18.92
2023-03-31T13:39:30.793Z,8.48
2023-03-31T13:42:20.380Z,6.25
2023-03-31T13:45:16.935Z,8.30
2023-03-31T13:48:16.025Z,7.80
2023-03-31T13:51:11.247Z,6.07
2023-03-31T13:54:24.437Z,10.20
2023-03-31T13:57:27.236Z,8.57
2023-03-31T14:00:26.015Z,7.88
2023-03-31T14:03:27.017Z,7.75
2023-03-31T14:06:02.133Z,7.68
2023-03-31T14:08:50.559Z,18.75
2023-03-31T14:11:25.301Z,31.45
2023-03-31T14:14:06.363Z,39.17
2023-03-31T14:16:41.884Z,41.80
2023-03-31T14:19:36.981Z,26.15
2023-03-31T14:22:15.788Z,20.45
2023-03-31T14:24:53.152Z,14.10
2023-03-31T14:27:41.550Z,14.70
2023-03-31T14:30:21.523Z,38.35
2023-03-31T14:33:15.322Z,35.63
2023-03-31T14:35:49.276Z,37.92
2023-03-31T14:38:24.930Z,22.80
2023-03-31T14:40:56.518Z,19.10
2023-03-31T14:43:29.610Z,11.43
2023-03-31T14:46:03.168Z,10.40
2023-03-31T14:48:36.691Z,15.32
2023-03-31T14:51:10.852Z,14.82
2023-03-31T14:53:40.702Z,22.33
2023-03-31T14:56:13.836Z,24.85
2023-03-31T14:58:48.821Z,19.15
2023-03-31T15:01:21.486Z,28.03
2023-03-31T15:03:55.178Z,22.67
2023-03-31T15:06:27.102Z,19.23
2023-03-31T15:08:59.544Z,12.57
2023-03-31T15:11:30.177Z,15.20
2023-03-31T15:14:05.690Z,15.52
2023-03-31T15:16:42.250Z,14.20
2023-03-31T15:19:20.420Z,16.10
2023-03-31T15:21:56.985Z,13.68
2023-03-31T15:24:26.654Z,19.33
2023-03-31T15:27:01.539Z,19.10
2023-03-31T15:29:39.219Z,22.30
2023-03-31T15:32:15.072Z,14.70
2023-03-31T15:34:48.027Z,19.67
2023-03-31T15:37:17.362Z,14.93
2023-03-31T15:39:49.206Z,16.80
2023-03-31T15:42:19.388Z,13.00
2023-03-31T15:44:54.767Z,15.00
2023-03-31T15:47:29.459Z,21.10
2023-03-31T15:50:13.263Z,22.05
2023-03-31T15:52:53.123Z,23.88
2023-03-31T15:55:29.193Z,24.90
2023-03-31T15:58:00.632Z,28.55
2023-03-31T16:00:48.649Z,27.75
2023-03-31T16:03:24.399Z,21.85
2023-03-31T16:05:57.853Z,18.60
2023-03-31T16:08:31.441Z,15.88
2023-03-31T16:11:06.529Z,19.45
2023-03-31T16:13:39.692Z,25.13
2023-03-31T16:16:11.975Z,21.80
2023-03-31T16:18:44.786Z,20.45
2023-03-31T16:21:22.002Z,19.15
2023-03-31T16:23:55.951Z,27.17
2023-03-31T16:26:28.448Z,24.58
2023-03-31T16:28:58.947Z,30.48
2023-03-31T16:31:35.746Z,28.83
2023-03-31T16:34:08.312Z,48.40
2023-03-31T16:36:40.347Z,39.25
2023-03-31T16:39:09.813Z,30.60
2023-03-31T16:41:39.896Z,19.50
2023-03-31T16:44:09.429Z,20.08
2023-03-31T16:46:39.183Z,19.48
2023-03-31T16:49:08.705Z,17.83
2023-03-31T16:51:39.682Z,25.88
2023-03-31T16:54:08.980Z,19.80
2023-03-31T16:56:38.672Z,17.83
2023-03-31T16:59:09.009Z,21.10
2023-03-31T17:01:38.950Z,22.80
2023-03-31T17:04:08.916Z,22.45
2023-03-31T17:06:39.950Z,25.05
2023-03-31T17:09:09.358Z,30.05
2023-03-31T17:11:39.191Z,31.83
2023-03-31T17:14:08.521Z,31.63
2023-03-31T17:16:47.328Z,33.67
2023-03-31T17:19:18.381Z,31.25
2023-03-31T17:21:49.635Z,27.33
2023-03-31T17:24:18.998Z,31.27
2023-03-31T17:26:48.640Z,28.35
2023-03-31T17:29:18.539Z,30.25
2023-03-31T17:31:48.135Z,35.88
2023-03-31T17:34:18.249Z,36.28
2023-03-31T17:36:51.632Z,36.63
2023-03-31T17:39:21.219Z,43.97
2023-03-31T17:41:50.854Z,35.30
2023-03-31T17:44:20.293Z,53.08
2023-03-31T17:46:50.093Z,48.28
2023-03-31T17:49:20.107Z,49.50
2023-03-31T17:51:51.296Z,43.72
2023-03-31T17:54:20.855Z,53.25
2023-03-31T17:56:50.575Z,52.30
2023-03-31T17:59:20.598Z,44.25
2023-03-31T18:01:50.365Z,53.25
2023-03-31T18:04:20.891Z,42.00
2023-03-31T18:06:52.141Z,41.25
2023-03-31T18:09:22.108Z,36.35
2023-03-31T18:11:52.046Z,33.75
2023-03-31T18:14:21.546Z,41.72
2023-03-31T18:16:51.480Z,39.17
2023-03-31T18:19:22.109Z,45.22
2023-03-31T18:21:53.354Z,47.35
2023-03-31T18:24:22.855Z,39.72
2023-03-31T18:26:52.552Z,68.47
2023-03-31T18:29:21.957Z,53.80
2023-03-31T18:31:52.123Z,53.42
2023-03-31T18:34:21.421Z,53.65
2023-03-31T18:36:53.562Z,51.42
2023-03-31T18:39:23.844Z,57.38
2023-03-31T18:41:54.421Z,55.88
2023-03-31T18:44:24.267Z,49.78
2023-03-31T18:46:54.295Z,51.17
2023-03-31T18:49:23.790Z,49.10
2023-03-31T18:51:55.097Z,67.28
2023-03-31T18:54:26.536Z,61.03
2023-03-31T18:56:56.693Z,91.95
2023-03-31T18:59:26.389Z,87.72
2023-03-31T19:01:56.449Z,79.95
2023-03-31T19:04:27.869Z,87.45
2023-03-31T19:06:59.197Z,78.68
2023-03-31T19:09:28.901Z,70.28
2023-03-31T19:11:58.639Z,65.72
2023-03-31T19:14:28.520Z,88.43
2023-03-31T19:16:58.349Z,85.93
2023-03-31T19:19:29.051Z,60.88
2023-03-31T19:22:00.624Z,74.43
2023-03-31T19:24:30.320Z,74.20
2023-03-31T19:27:01.410Z,76.88
2023-03-31T19:29:31.958Z,55.85
2023-03-31T19:32:01.544Z,94.05
2023-03-31T19:34:31.836Z,70.40
2023-03-31T19:37:04.011Z,59.35
2023-03-31T19:39:33.817Z,73.47
2023-03-31T19:42:03.482Z,59.65
2023-03-31T19:44:35.187Z,87.68
2023-03-31T19:47:05.658Z,87.80
2023-03-31T19:49:35.005Z,107.53
2023-03-31T19:52:06.957Z,83.68
2023-03-31T19:54:36.259Z,100.57
2023-03-31T19:57:05.963Z,91.82
2023-03-31T19:59:35.794Z,78.03
2023-03-31T20:02:05.798Z,82.03
2023-03-31T20:04:36.056Z,74.35
2023-03-31T20:07:07.376Z,76.15
2023-03-31T20:09:37.320Z,63.25
2023-03-31T20:12:07.094Z,63.40
2023-03-31T20:14:36.605Z,60.28
2023-03-31T20:17:07.596Z,64.45
2023-03-31T20:19:36.975Z,74.65
2023-03-31T20:22:08.018Z,64.75
2023-03-31T20:24:38.828Z,63.83
2023-03-31T20:27:08.787Z,56.78
2023-03-31T20:29:38.282Z,56.67
2023-03-31T20:32:09.664Z,55.67
2023-03-31T20:34:39.101Z,48.63
2023-03-31T20:37:10.059Z,56.05
2023-03-31T20:39:39.443Z,59.67
2023-03-31T20:42:09.068Z,83.07
2023-03-31T20:44:38.474Z,76.47
2023-03-31T20:47:08.464Z,83.75
2023-03-31T20:49:37.794Z,85.88
2023-03-31T20:52:09.148Z,60.30
2023-03-31T20:54:38.782Z,80.45
2023-03-31T20:57:08.588Z,77.13
2023-03-31T20:59:39.671Z,56.25
2023-03-31T21:02:11.453Z,59.40
2023-03-31T21:04:41.138Z,61.83
2023-03-31T21:07:12.082Z,70.88
2023-03-31T21:09:41.477Z,74.07
2023-03-31T21:12:11.211Z,64.78
2023-03-31T21:14:40.506Z,63.08
2023-03-31T21:17:10.090Z,88.75
2023-03-31T21:19:39.510Z,42.90
2023-03-31T21:22:09.027Z,32.70
2023-03-31T21:24:39.933Z,21.70
2023-03-31T21:27:09.519Z,17.02
2023-03-31T21:29:38.931Z,15.32
2023-03-31T21:32:09.234Z,15.40
2023-03-31T21:34:38.587Z,14.95
2023-03-31T21:37:08.722Z,17.38
2023-03-31T21:39:39.434Z,23.00
2023-03-31T21:42:09.054Z,15.93
2023-03-31T21:44:38.368Z,15.45
2023-03-31T21:47:08.048Z,20.20
2023-03-31T21:49:37.370Z,20.25
2023-03-31T21:52:07.165Z,20.08
2023-03-31T21:54:36.771Z,16.13
2023-03-31T21:57:08.781Z,14.70
2023-03-31T21:59:38.365Z,11.57
2023-03-31T22:02:08.310Z,13.77
2023-03-31T22:04:37.702Z,11.20
2023-03-31T22:07:07.373Z,13.10
2023-03-31T22:09:36.974Z,11.00
2023-03-31T22:12:08.318Z,10.35
2023-03-31T22:14:38.962Z,8.80
2023-03-31T22:17:08.614Z,6.25
2023-03-31T22:19:38.612Z,9.98
2023-03-31T22:22:08.784Z,8.80
2023-03-31T22:24:38.925Z,8.88
2023-03-31T22:27:09.974Z,8.63
2023-03-31T22:29:39.583Z,13.13
2023-03-31T22:32:09.221Z,12.05
2023-03-31T22:34:38.442Z,13.57
2023-03-31T22:37:08.060Z,9.77
2023-03-31T22:39:37.448Z,9.65
2023-03-31T22:42:08.715Z,12.10
2023-03-31T22:44:40.366Z,13.48
2023-03-31T22:47:10.329Z,10.98
2023-03-31T22:49:39.837Z,9.38
2023-03-31T22:52:09.486Z,10.02
2023-03-31T22:54:40.203Z,9.65
2023-03-31T22:57:11.396Z,9.38
2023-03-31T22:59:40.774Z,12.05
2023-03-31T23:02:10.302Z,8.02
2023-03-31T23:04:39.626Z,9.10
2023-03-31T23:07:09.287Z,8.10
2023-03-31T23:09:38.625Z,9.05
2023-03-31T23:12:08.597Z,10.75
2023-03-31T23:14:39.598Z,11.80
2023-03-31T23:17:09.210Z,11.10
2023-03-31T23:19:38.903Z,6.97
2023-03-31T23:22:08.560Z,8.77
2023-03-31T23:24:37.868Z,8.05
2023-03-31T23:27:07.543Z,5.50
2023-03-31T23:29:38.445Z,6.85
2023-03-31T23:32:08.312Z,6.03
2023-03-31T23:34:41.658Z,5.13
2023-03-31T23:37:12.139Z,4.15
2023-03-31T23:39:41.974Z,4.88
2023-03-31T23:42:16.225Z,6.50
2023-03-31T23:44:46.982Z,4.72
2023-03-31T23:47:16.601Z,4.00
2023-03-31T23:49:46.104Z,6.22
2023-03-31T23:52:15.629Z,5.63
2023-03-31T23:54:44.980Z,6.32
2023-03-31T23:57:14.701Z,6.38
2023-03-31T23:59:45.639Z,7.72
